Time;durP1;ratioP1;P1;durP2;ratioP2;P2;SDS_P1;SDS_P2;PMS_P1;PMS_P2;Temp;Humidity;BMP_temperature;BMP_pressure;BME280_temperature;BME280_humidity;BME280_pressure;Samples;Min_cycle;Max_cycle;Signal;HPM_P1;HPM_P2
2024/02/06 00:00:03;;;;;;;18.73;7.30;;;;;;;;;;4973445;28;25075;-66
2024/02/06 00:02:29;;;;;;;19.33;7.43;;;;;;;;;;4969697;28;25089;-65
2024/02/06 00:04:55;;;;;;;21.65;8.07;;;;;;;;;;4988544;28;25092;-65
2024/02/06 00:07:21;;;;;;;25.02;8.20;;;;;;;;;;4968925;28;25252;-64
2024/02/06 00:09:47;;;;;;;27.83;8.18;;;;;;;;;;4970377;28;25121;-63
2024/02/06 00:12:13;;;;;;;20.92;7.03;;;;;;;;;;4975700;28;25075;-64
2024/02/06 00:14:39;;;;;;;21.77;7.45;;;;;;;;;;4972507;28;25064;-65
2024/02/06 00:17:05;;;;;;;17.23;7.55;;;;;;;;;;4966795;28;25112;-63
2024/02/06 00:19:31;;;;;;;22.10;7.47;;;;;;;;;;4971152;28;25081;-66
2024/02/06 00:21:57;;;;;;;24.30;7.90;;;;;;;;;;4967063;28;25066;-63
2024/02/06 00:24:23;;;;;;;22.00;7.05;;;;;;;;;;4966369;28;25145;-67
2024/02/06 00:26:48;;;;;;;15.70;6.60;;;;;;;;;;4963874;28;25100;-64
2024/02/06 00:29:14;;;;;;;16.65;7.30;;;;;;;;;;4967039;28;25076;-64
2024/02/06 00:31:40;;;;;;;21.98;7.03;;;;;;;;;;4972815;28;25074;-66
2024/02/06 00:34:06;;;;;;;30.55;6.93;;;;;;;;;;4961249;28;25142;-63
2024/02/06 00:36:32;;;;;;;20.50;6.53;;;;;;;;;;4963706;28;25112;-65
2024/02/06 00:38:58;;;;;;;20.55;8.45;;;;;;;;;;4968832;28;25084;-63
2024/02/06 00:41:24;;;;;;;29.30;7.78;;;;;;;;;;4966101;28;25165;-63
2024/02/06 00:43:51;;;;;;;23.20;8.63;;;;;;;;;;4966970;28;25165;-65
2024/02/06 00:46:17;;;;;;;26.13;8.07;;;;;;;;;;4961516;28;25119;-65
2024/02/06 00:48:43;;;;;;;26.30;8.32;;;;;;;;;;4963001;28;25105;-64
2024/02/06 00:51:09;;;;;;;20.90;7.45;;;;;;;;;;4968387;28;25076;-65
2024/02/06 00:53:35;;;;;;;20.42;7.28;;;;;;;;;;4954809;28;25066;-62
2024/02/06 00:56:04;;;;;;;29.23;7.72;;;;;;;;;;4969901;28;25130;-63
2024/02/06 00:58:29;;;;;;;22.67;6.63;;;;;;;;;;4966828;28;25067;-66
2024/02/06 01:00:55;;;;;;;24.90;7.32;;;;;;;;;;4967366;28;25070;-63
2024/02/06 01:03:21;;;;;;;21.90;7.85;;;;;;;;;;4971560;28;25107;-62
2024/02/06 01:05:47;;;;;;;22.65;6.57;;;;;;;;;;4982457;28;25075;-63
2024/02/06 01:08:13;;;;;;;23.33;7.57;;;;;;;;;;4975668;28;25153;-65
2024/02/06 01:10:39;;;;;;;25.48;7.10;;;;;;;;;;4977755;28;25094;-64
2024/02/06 01:13:05;;;;;;;26.38;7.55;;;;;;;;;;4968616;28;25108;-64
2024/02/06 01:15:33;;;;;;;23.33;8.15;;;;;;;;;;4974141;28;25090;-65
2024/02/06 01:17:59;;;;;;;21.42;6.78;;;;;;;;;;4967140;28;24726;-64
2024/02/06 01:20:25;;;;;;;19.95;6.85;;;;;;;;;;4971272;28;25185;-65
2024/02/06 01:22:51;;;;;;;23.05;7.72;;;;;;;;;;4985086;28;25138;-63
2024/02/06 01:25:17;;;;;;;22.88;6.32;;;;;;;;;;4970389;28;25090;-65
2024/02/06 01:27:43;;;;;;;18.80;6.68;;;;;;;;;;4969620;28;25081;-63
2024/02/06 01:30:09;;;;;;;21.55;6.82;;;;;;;;;;4966673;28;25141;-64
2024/02/06 01:32:35;;;;;;;19.73;6.50;;;;;;;;;;4965664;28;25066;-64
2024/02/06 01:35:01;;;;;;;31.05;7.75;;;;;;;;;;4966062;28;25130;-64
2024/02/06 01:37:27;;;;;;;18.02;5.95;;;;;;;;;;4964713;28;25099;-67
2024/02/06 01:39:53;;;;;;;22.17;6.78;;;;;;;;;;4965603;28;25152;-65
2024/02/06 01:42:19;;;;;;;24.23;6.57;;;;;;;;;;4964394;28;25071;-64
2024/02/06 01:44:45;;;;;;;23.42;6.45;;;;;;;;;;4976630;28;25078;-66
2024/02/06 01:47:13;;;;;;;18.77;6.15;;;;;;;;;;4973595;28;25049;-65
2024/02/06 01:49:40;;;;;;;25.70;6.40;;;;;;;;;;4971432;28;25152;-66
2024/02/06 01:52:06;;;;;;;22.85;6.68;;;;;;;;;;4970972;28;25124;-63
2024/02/06 01:54:32;;;;;;;25.35;7.40;;;;;;;;;;4973034;28;25076;-63
2024/02/06 01:56:59;;;;;;;28.50;7.00;;;;;;;;;;4970840;28;25075;-65
2024/02/06 01:59:25;;;;;;;20.30;6.30;;;;;;;;;;4971483;28;25150;-65
2024/02/06 02:01:51;;;;;;;22.02;6.07;;;;;;;;;;4971837;28;25085;-64
2024/02/06 02:04:17;;;;;;;23.33;6.78;;;;;;;;;;4970979;28;25067;-64
2024/02/06 02:06:43;;;;;;;23.10;6.53;;;;;;;;;;4971546;28;25134;-64
2024/02/06 02:09:09;;;;;;;21.70;7.07;;;;;;;;;;4970603;28;25076;-65
2024/02/06 02:11:35;;;;;;;19.92;6.40;;;;;;;;;;4968738;28;25064;-67
2024/02/06 02:14:02;;;;;;;23.48;6.55;;;;;;;;;;4973065;28;25060;-64
2024/02/06 02:16:28;;;;;;;26.38;6.40;;;;;;;;;;4970047;28;25129;-63
2024/02/06 02:18:55;;;;;;;19.85;7.50;;;;;;;;;;4975947;28;25168;-62
2024/02/06 02:21:21;;;;;;;27.90;7.28;;;;;;;;;;4972599;28;25120;-65
2024/02/06 02:23:48;;;;;;;23.85;6.40;;;;;;;;;;4986650;28;25132;-65
2024/02/06 02:26:14;;;;;;;19.65;6.38;;;;;;;;;;4964243;28;25140;-66
2024/02/06 02:28:42;;;;;;;24.35;7.00;;;;;;;;;;4955855;28;25057;-67
2024/02/06 02:31:09;;;;;;;32.83;8.02;;;;;;;;;;4969257;28;25062;-65
2024/02/06 02:33:36;;;;;;;27.27;7.82;;;;;;;;;;4973848;28;25133;-65
2024/02/06 02:36:05;;;;;;;27.35;7.32;;;;;;;;;;4976061;28;25140;-65
2024/02/06 02:38:31;;;;;;;30.35;7.47;;;;;;;;;;4966082;28;25062;-63
2024/02/06 02:40:57;;;;;;;23.38;6.80;;;;;;;;;;4969114;28;25083;-64
2024/02/06 02:43:24;;;;;;;24.23;6.68;;;;;;;;;;4972495;28;25182;-66
2024/02/06 02:45:50;;;;;;;28.40;8.00;;;;;;;;;;4986410;28;25067;-65
2024/02/06 02:48:16;;;;;;;21.45;7.50;;;;;;;;;;4967662;28;25068;-63
2024/02/06 02:50:42;;;;;;;30.75;7.25;;;;;;;;;;4968567;28;25118;-65
2024/02/06 02:53:08;;;;;;;27.00;7.20;;;;;;;;;;4967637;28;25073;-65
2024/02/06 02:55:34;;;;;;;22.33;6.03;;;;;;;;;;4989263;28;25078;-65
2024/02/06 02:58:00;;;;;;;25.27;7.15;;;;;;;;;;4967964;28;25082;-66
2024/02/06 03:00:26;;;;;;;25.98;7.00;;;;;;;;;;4967428;28;25074;-66
2024/02/06 03:02:52;;;;;;;31.17;7.82;;;;;;;;;;4969430;28;25071;-63
2024/02/06 03:05:18;;;;;;;23.65;7.22;;;;;;;;;;4974267;28;25076;-65
2024/02/06 03:07:44;;;;;;;25.80;6.95;;;;;;;;;;4962094;28;25154;-62
2024/02/06 03:10:10;;;;;;;22.67;6.60;;;;;;;;;;4985281;28;25057;-60
2024/02/06 03:12:36;;;;;;;26.48;7.97;;;;;;;;;;4966841;28;25121;-63
2024/02/06 03:15:03;;;;;;;21.15;6.28;;;;;;;;;;4967461;28;25069;-63
2024/02/06 03:17:29;;;;;;;18.48;6.25;;;;;;;;;;4960502;28;25089;-64
2024/02/06 03:19:55;;;;;;;19.02;6.05;;;;;;;;;;4950047;28;25058;-63
2024/02/06 03:22:21;;;;;;;26.50;6.78;;;;;;;;;;4949211;28;25054;-64
2024/02/06 03:24:48;;;;;;;26.88;7.20;;;;;;;;;;4973106;28;25052;-63
2024/02/06 03:27:14;;;;;;;18.75;7.03;;;;;;;;;;4980839;28;25054;-65
2024/02/06 03:29:42;;;;;;;19.15;6.07;;;;;;;;;;4979268;28;25082;-64
2024/02/06 03:32:08;;;;;;;19.92;7.05;;;;;;;;;;4975167;28;25076;-64
2024/02/06 03:34:34;;;;;;;22.23;7.40;;;;;;;;;;4964599;28;25127;-61
2024/02/06 03:37:00;;;;;;;27.08;7.72;;;;;;;;;;4969428;28;25063;-66
2024/02/06 03:39:26;;;;;;;33.05;6.55;;;;;;;;;;4971235;28;25055;-64
2024/02/06 03:41:52;;;;;;;24.13;6.22;;;;;;;;;;4966279;28;25053;-64
2024/02/06 03:44:19;;;;;;;20.58;6.15;;;;;;;;;;4967219;28;25060;-63
2024/02/06 03:46:45;;;;;;;25.73;6.80;;;;;;;;;;4965104;28;25080;-65
2024/02/06 03:49:11;;;;;;;35.30;7.72;;;;;;;;;;4969672;28;25069;-64
2024/02/06 03:51:37;;;;;;;25.95;7.43;;;;;;;;;;4968345;28;25072;-64
2024/02/06 03:54:03;;;;;;;29.15;6.55;;;;;;;;;;4967863;28;25073;-65
2024/02/06 03:56:29;;;;;;;33.28;8.60;;;;;;;;;;4967777;28;25152;-67
2024/02/06 03:58:54;;;;;;;25.42;7.80;;;;;;;;;;4961266;28;25076;-67
2024/02/06 04:01:20;;;;;;;28.38;7.32;;;;;;;;;;4968511;28;25086;-68
2024/02/06 04:03:46;;;;;;;25.65;6.65;;;;;;;;;;4970707;28;25067;-71
2024/02/06 04:06:13;;;;;;;27.17;6.80;;;;;;;;;;4969441;28;25066;-74
2024/02/06 04:08:39;;;;;;;30.55;7.53;;;;;;;;;;4967991;28;25169;-69
2024/02/06 04:11:06;;;;;;;31.67;7.20;;;;;;;;;;4967649;28;25144;-72
2024/02/06 04:13:33;;;;;;;29.77;6.90;;;;;;;;;;4969330;28;25072;-66
2024/02/06 04:15:58;;;;;;;26.23;7.55;;;;;;;;;;4968504;28;25106;-66
2024/02/06 04:18:25;;;;;;;31.83;7.97;;;;;;;;;;4967722;28;25138;-68
2024/02/06 04:20:51;;;;;;;32.33;7.97;;;;;;;;;;4964701;28;25063;-67
2024/02/06 04:23:17;;;;;;;29.38;8.30;;;;;;;;;;4969208;28;25048;-67
2024/02/06 04:25:42;;;;;;;25.58;8.07;;;;;;;;;;4980331;28;25071;-67
2024/02/06 04:28:08;;;;;;;28.73;7.68;;;;;;;;;;4965847;28;25126;-69
2024/02/06 04:30:35;;;;;;;31.58;7.32;;;;;;;;;;4969587;28;25080;-67
2024/02/06 04:33:01;;;;;;;30.30;7.22;;;;;;;;;;4964697;28;25158;-67
2024/02/06 04:35:27;;;;;;;26.08;7.25;;;;;;;;;;4962842;28;25060;-67
2024/02/06 04:37:53;;;;;;;28.70;7.43;;;;;;;;;;4952236;28;25089;-67
2024/02/06 04:40:18;;;;;;;34.55;7.38;;;;;;;;;;4969735;28;25084;-67
2024/02/06 04:42:44;;;;;;;25.23;7.55;;;;;;;;;;4967502;28;25122;-68
2024/02/06 04:45:10;;;;;;;33.97;8.02;;;;;;;;;;4968609;28;25096;-67
2024/02/06 04:47:36;;;;;;;29.42;7.53;;;;;;;;;;4986156;28;25068;-67
2024/02/06 04:50:03;;;;;;;27.55;7.70;;;;;;;;;;4990004;28;25101;-67
2024/02/06 04:52:30;;;;;;;32.83;8.20;;;;;;;;;;4989002;28;25051;-67
2024/02/06 04:54:55;;;;;;;27.13;8.55;;;;;;;;;;4968594;28;25067;-66
2024/02/06 04:57:21;;;;;;;36.05;8.60;;;;;;;;;;4969431;28;25109;-67
2024/02/06 04:59:47;;;;;;;27.33;8.48;;;;;;;;;;4976319;28;25065;-67
2024/02/06 05:02:13;;;;;;;28.90;7.80;;;;;;;;;;4970448;28;25063;-67
2024/02/06 05:04:39;;;;;;;30.25;7.60;;;;;;;;;;4970491;28;25102;-69
2024/02/06 05:07:05;;;;;;;31.17;6.97;;;;;;;;;;4968082;28;25086;-68
2024/02/06 05:09:31;;;;;;;34.05;8.82;;;;;;;;;;4967715;28;25077;-65
2024/02/06 05:11:57;;;;;;;38.47;8.00;;;;;;;;;;4969469;28;25115;-69
2024/02/06 05:14:25;;;;;;;37.38;7.55;;;;;;;;;;4971879;28;25111;-69
2024/02/06 05:16:51;;;;;;;34.72;8.60;;;;;;;;;;4969062;28;25105;-67
2024/02/06 05:19:19;;;;;;;47.72;8.75;;;;;;;;;;4974564;28;25077;-66
2024/02/06 05:21:45;;;;;;;41.78;8.70;;;;;;;;;;4971839;28;25163;-67
2024/02/06 05:24:11;;;;;;;45.72;9.73;;;;;;;;;;4971122;28;25110;-69
2024/02/06 05:26:37;;;;;;;32.70;9.50;;;;;;;;;;4969924;28;25054;-70
2024/02/06 05:29:03;;;;;;;42.58;9.77;;;;;;;;;;4969168;28;25078;-67
2024/02/06 05:31:29;;;;;;;43.38;9.77;;;;;;;;;;4970257;28;25058;-67
2024/02/06 05:33:55;;;;;;;40.45;10.40;;;;;;;;;;4965256;28;25151;-66
2024/02/06 05:36:21;;;;;;;36.60;8.85;;;;;;;;;;4966256;28;25178;-66
2024/02/06 05:38:47;;;;;;;32.70;8.48;;;;;;;;;;4970362;28;25168;-71
2024/02/06 05:41:13;;;;;;;43.08;9.48;;;;;;;;;;4973961;28;25081;-69
2024/02/06 05:43:39;;;;;;;29.10;8.95;;;;;;;;;;4972526;28;25078;-69
2024/02/06 05:46:05;;;;;;;37.08;8.10;;;;;;;;;;4978438;28;25055;-68
2024/02/06 05:48:31;;;;;;;43.85;9.77;;;;;;;;;;4981098;28;25078;-67
2024/02/06 05:50:57;;;;;;;43.15;9.93;;;;;;;;;;4978679;28;25059;-68
2024/02/06 05:53:23;;;;;;;37.03;9.35;;;;;;;;;;4982697;28;25089;-68
2024/02/06 05:55:49;;;;;;;37.42;9.02;;;;;;;;;;4979008;28;25082;-68
2024/02/06 05:58:15;;;;;;;36.58;8.50;;;;;;;;;;4975399;28;25067;-68
2024/02/06 06:00:41;;;;;;;41.63;9.98;;;;;;;;;;4973648;28;25111;-70
2024/02/06 06:03:07;;;;;;;41.85;9.23;;;;;;;;;;4979146;28;25067;-65
2024/02/06 06:05:33;;;;;;;33.03;8.57;;;;;;;;;;4972645;28;25094;-67
2024/02/06 06:07:59;;;;;;;39.00;9.23;;;;;;;;;;4971162;28;25071;-67
2024/02/06 06:10:25;;;;;;;36.30;8.02;;;;;;;;;;4970662;28;25076;-69
2024/02/06 06:12:52;;;;;;;43.58;10.63;;;;;;;;;;4968290;28;25122;-68
2024/02/06 06:15:18;;;;;;;35.40;8.57;;;;;;;;;;4970120;28;25102;-65
2024/02/06 06:17:44;;;;;;;39.72;9.15;;;;;;;;;;4969372;28;25096;-67
2024/02/06 06:20:10;;;;;;;35.58;8.82;;;;;;;;;;4967380;28;25110;-67
2024/02/06 06:22:36;;;;;;;39.72;9.75;;;;;;;;;;4972098;28;25068;-68
2024/02/06 06:25:02;;;;;;;48.20;10.00;;;;;;;;;;4972304;28;25100;-66
2024/02/06 06:27:28;;;;;;;41.17;8.73;;;;;;;;;;4970922;28;25068;-67
2024/02/06 06:29:54;;;;;;;42.08;9.32;;;;;;;;;;4968080;28;25054;-68
2024/02/06 06:32:20;;;;;;;48.60;10.45;;;;;;;;;;4969141;28;25062;-66
2024/02/06 06:34:46;;;;;;;43.83;9.85;;;;;;;;;;4965416;28;25085;-68
2024/02/06 06:37:12;;;;;;;35.15;8.90;;;;;;;;;;4968301;28;25145;-67
2024/02/06 06:39:38;;;;;;;44.15;8.88;;;;;;;;;;4969464;28;25122;-68
2024/02/06 06:42:05;;;;;;;40.20;9.15;;;;;;;;;;4967680;28;25155;-65
2024/02/06 06:44:31;;;;;;;46.70;10.27;;;;;;;;;;4969289;28;25069;-67
2024/02/06 06:46:58;;;;;;;36.92;8.45;;;;;;;;;;4967182;28;25049;-68
2024/02/06 06:49:24;;;;;;;44.80;9.55;;;;;;;;;;4969267;28;25107;-67
2024/02/06 06:51:50;;;;;;;26.80;8.23;;;;;;;;;;4967840;28;25082;-67
2024/02/06 06:54:16;;;;;;;42.30;8.55;;;;;;;;;;4974906;28;25061;-69
2024/02/06 06:56:42;;;;;;;47.78;10.00;;;;;;;;;;4968558;28;25054;-67
2024/02/06 06:59:08;;;;;;;41.05;8.07;;;;;;;;;;4971796;28;25070;-67
2024/02/06 07:01:35;;;;;;;36.05;7.88;;;;;;;;;;4969005;28;25075;-68
2024/02/06 07:04:01;;;;;;;38.25;8.13;;;;;;;;;;4970671;28;25067;-67
2024/02/06 07:06:27;;;;;;;34.17;8.43;;;;;;;;;;4962697;28;25091;-69
2024/02/06 07:08:53;;;;;;;32.22;8.02;;;;;;;;;;4956248;28;25074;-67
2024/02/06 07:11:19;;;;;;;31.35;8.35;;;;;;;;;;4966062;28;25066;-68
2024/02/06 07:13:45;;;;;;;30.45;7.35;;;;;;;;;;4971715;28;25112;-69
2024/02/06 07:16:11;;;;;;;39.85;8.48;;;;;;;;;;4971478;28;25091;-66
2024/02/06 07:18:37;;;;;;;30.42;9.02;;;;;;;;;;4970329;28;25095;-66
2024/02/06 07:21:03;;;;;;;27.48;7.47;;;;;;;;;;4979167;28;25100;-64
2024/02/06 07:23:29;;;;;;;28.67;8.57;;;;;;;;;;4967421;28;25060;-67
2024/02/06 07:25:55;;;;;;;31.15;8.15;;;;;;;;;;4965548;28;25098;-69
2024/02/06 07:28:22;;;;;;;42.88;8.65;;;;;;;;;;4987716;28;25145;-67
2024/02/06 07:30:48;;;;;;;33.90;9.15;;;;;;;;;;4968555;28;25074;-68
2024/02/06 07:33:14;;;;;;;33.40;8.65;;;;;;;;;;4968388;28;25048;-64
2024/02/06 07:35:40;;;;;;;37.85;8.05;;;;;;;;;;4962885;28;25062;-67
2024/02/06 07:38:06;;;;;;;45.55;9.30;;;;;;;;;;4963696;28;25062;-66
2024/02/06 07:40:32;;;;;;;33.85;7.32;;;;;;;;;;4966317;28;25129;-66
2024/02/06 07:43:00;;;;;;;27.90;7.35;;;;;;;;;;4972456;28;25151;-66
2024/02/06 07:45:26;;;;;;;28.35;6.88;;;;;;;;;;4975484;28;25062;-68
2024/02/06 07:47:52;;;;;;;35.50;8.88;;;;;;;;;;4970726;28;25113;-64
2024/02/06 07:50:19;;;;;;;27.30;8.20;;;;;;;;;;4966112;28;25062;-66
2024/02/06 07:52:45;;;;;;;36.92;10.15;;;;;;;;;;4967800;28;25058;-66
2024/02/06 07:55:11;;;;;;;32.08;7.85;;;;;;;;;;4965513;28;25094;-67
2024/02/06 07:57:37;;;;;;;35.40;7.82;;;;;;;;;;4967486;28;25173;-68
2024/02/06 08:00:04;;;;;;;39.80;8.55;;;;;;;;;;4959964;28;25073;-68
2024/02/06 08:02:31;;;;;;;36.42;7.97;;;;;;;;;;4954888;28;25056;-68
2024/02/06 08:04:57;;;;;;;38.88;9.63;;;;;;;;;;4966239;28;25048;-67
2024/02/06 08:07:25;;;;;;;34.33;9.35;;;;;;;;;;4978047;28;25104;-66
2024/02/06 08:09:51;;;;;;;26.77;8.75;;;;;;;;;;4970647;28;25064;-67
2024/02/06 08:12:17;;;;;;;30.13;7.95;;;;;;;;;;4984228;28;25071;-66
2024/02/06 08:14:43;;;;;;;34.38;8.50;;;;;;;;;;4997660;28;25061;-70
2024/02/06 08:17:10;;;;;;;36.70;7.80;;;;;;;;;;4975716;28;25150;-68
2024/02/06 08:19:36;;;;;;;33.67;7.82;;;;;;;;;;4983594;28;25075;-67
2024/02/06 08:22:02;;;;;;;38.47;8.65;;;;;;;;;;4968184;28;25081;-69
2024/02/06 08:24:28;;;;;;;37.08;8.70;;;;;;;;;;4979496;28;25101;-67
2024/02/06 08:26:56;;;;;;;29.83;7.00;;;;;;;;;;4975245;28;25080;-66
2024/02/06 08:29:22;;;;;;;30.70;6.97;;;;;;;;;;4983775;28;25125;-66
2024/02/06 08:31:48;;;;;;;34.55;6.88;;;;;;;;;;4969357;28;25064;-69
2024/02/06 08:34:14;;;;;;;28.58;7.55;;;;;;;;;;4970821;28;25076;-65
2024/02/06 08:36:40;;;;;;;27.33;7.72;;;;;;;;;;4967383;28;25126;-67
2024/02/06 08:39:06;;;;;;;27.13;6.60;;;;;;;;;;4962617;28;25066;-69
2024/02/06 08:41:35;;;;;;;29.23;6.07;;;;;;;;;;4960623;28;25045;-69
2024/02/06 08:44:01;;;;;;;27.42;6.07;;;;;;;;;;4983849;28;25077;-66
2024/02/06 08:46:27;;;;;;;27.02;6.28;;;;;;;;;;4968804;28;25069;-65
2024/02/06 08:48:54;;;;;;;23.40;6.35;;;;;;;;;;4966168;28;25073;-67
2024/02/06 08:51:20;;;;;;;23.23;6.38;;;;;;;;;;4963902;28;25066;-67
2024/02/06 08:53:46;;;;;;;24.20;6.25;;;;;;;;;;4960891;28;25156;-66
2024/02/06 08:56:12;;;;;;;26.95;5.82;;;;;;;;;;4966435;28;25093;-67
2024/02/06 08:58:38;;;;;;;21.13;6.25;;;;;;;;;;4967711;28;25100;-66
2024/02/06 09:01:04;;;;;;;29.10;6.68;;;;;;;;;;4979393;28;25085;-66
2024/02/06 09:03:30;;;;;;;22.50;6.53;;;;;;;;;;4964606;28;25074;-67
2024/02/06 09:05:56;;;;;;;22.83;6.13;;;;;;;;;;4968224;28;25052;-66
2024/02/06 09:08:22;;;;;;;27.55;6.85;;;;;;;;;;4963530;28;25057;-65
2024/02/06 09:10:48;;;;;;;21.30;6.32;;;;;;;;;;4966497;28;25103;-67
2024/02/06 09:13:14;;;;;;;28.38;7.40;;;;;;;;;;4965591;28;25090;-65
2024/02/06 09:15:40;;;;;;;19.40;5.78;;;;;;;;;;4968776;28;25061;-66
2024/02/06 09:18:06;;;;;;;37.17;8.30;;;;;;;;;;4977735;28;25075;-65
2024/02/06 09:20:32;;;;;;;30.85;7.95;;;;;;;;;;4963240;28;25071;-66
2024/02/06 09:22:58;;;;;;;30.85;7.20;;;;;;;;;;4946150;28;25164;-68
2024/02/06 09:25:24;;;;;;;29.23;6.88;;;;;;;;;;4948816;28;25083;-67
2024/02/06 09:27:50;;;;;;;23.55;6.07;;;;;;;;;;4971972;28;25070;-67
2024/02/06 09:30:17;;;;;;;29.35;7.10;;;;;;;;;;4962735;28;25103;-67
2024/02/06 09:32:43;;;;;;;28.40;6.65;;;;;;;;;;4969113;28;25064;-66
2024/02/06 09:35:10;;;;;;;25.50;6.95;;;;;;;;;;4966505;28;25189;-69
2024/02/06 09:37:36;;;;;;;31.08;7.47;;;;;;;;;;4966468;28;25094;-68
2024/02/06 09:40:02;;;;;;;25.30;6.78;;;;;;;;;;4968732;28;25054;-67
2024/02/06 09:42:29;;;;;;;30.95;7.28;;;;;;;;;;4968931;28;25113;-65
2024/02/06 09:44:55;;;;;;;26.13;7.07;;;;;;;;;;4970990;28;25131;-67
2024/02/06 09:47:21;;;;;;;35.85;8.80;;;;;;;;;;4987914;28;25187;-66
2024/02/06 09:49:47;;;;;;;36.10;8.45;;;;;;;;;;4966151;28;25128;-66
2024/02/06 09:52:15;;;;;;;24.77;7.63;;;;;;;;;;4965224;28;25177;-65
2024/02/06 09:54:46;;;;;;;34.67;9.43;;;;;;;;;;4984314;28;25071;-67
2024/02/06 09:57:17;;;;;;;27.70;7.28;;;;;;;;;;4969054;28;25090;-67
2024/02/06 09:59:43;;;;;;;26.60;7.72;;;;;;;;;;4983154;28;25065;-66
2024/02/06 10:02:10;;;;;;;30.88;7.57;;;;;;;;;;4976109;28;25137;-65
2024/02/06 10:04:36;;;;;;;21.83;7.32;;;;;;;;;;4973767;28;25153;-63
2024/02/06 10:07:03;;;;;;;28.88;6.68;;;;;;;;;;4976072;28;25109;-62
2024/02/06 10:09:31;;;;;;;34.72;7.40;;;;;;;;;;4972205;28;25058;-64
2024/02/06 10:11:58;;;;;;;30.60;7.03;;;;;;;;;;4974388;28;25086;-66
2024/02/06 10:14:25;;;;;;;39.33;7.78;;;;;;;;;;4971214;28;25116;-64
2024/02/06 10:16:51;;;;;;;40.45;8.65;;;;;;;;;;4961362;28;25066;-64
2024/02/06 10:19:17;;;;;;;38.25;8.82;;;;;;;;;;4982718;28;25074;-64
2024/02/06 10:21:43;;;;;;;32.30;7.88;;;;;;;;;;4963802;28;25170;-63
2024/02/06 10:24:09;;;;;;;32.22;7.30;;;;;;;;;;4968335;28;25088;-62
2024/02/06 10:26:35;;;;;;;22.75;6.53;;;;;;;;;;4969596;28;25048;-65
2024/02/06 10:29:05;;;;;;;25.05;7.20;;;;;;;;;;4978694;28;25164;-63
2024/02/06 10:31:32;;;;;;;33.13;7.15;;;;;;;;;;4984876;28;25079;-64
2024/02/06 10:34:11;;;;;;;22.95;6.40;;;;;;;;;;4970887;28;25064;-65
2024/02/06 10:36:37;;;;;;;27.38;7.38;;;;;;;;;;4976776;28;25067;-61
2024/02/06 10:39:03;;;;;;;30.20;7.85;;;;;;;;;;4983955;28;25072;-63
2024/02/06 10:41:29;;;;;;;28.55;7.07;;;;;;;;;;4981817;28;25166;-61
2024/02/06 10:43:55;;;;;;;23.63;6.78;;;;;;;;;;4977848;28;25085;-63
2024/02/06 10:46:22;;;;;;;24.85;7.07;;;;;;;;;;4966243;28;25108;-64
2024/02/06 10:48:48;;;;;;;23.17;7.55;;;;;;;;;;4972353;28;25076;-62
2024/02/06 10:51:22;;;;;;;37.78;7.82;;;;;;;;;;4968379;28;25054;-62
2024/02/06 10:53:48;;;;;;;28.83;7.05;;;;;;;;;;4971050;28;25066;-64
2024/02/06 10:56:15;;;;;;;23.10;6.45;;;;;;;;;;4966333;28;25135;-67
2024/02/06 10:58:44;;;;;;;24.95;6.90;;;;;;;;;;4970441;28;25074;-64
2024/02/06 11:01:14;;;;;;;22.90;6.80;;;;;;;;;;4966859;28;25060;-65
2024/02/06 11:03:45;;;;;;;23.33;6.82;;;;;;;;;;4964315;28;25073;-63
2024/02/06 11:06:26;;;;;;;24.20;6.10;;;;;;;;;;4967192;28;25067;-65
2024/02/06 11:08:52;;;;;;;18.45;5.68;;;;;;;;;;4986422;28;25060;-63
2024/02/06 11:11:18;;;;;;;16.00;5.53;;;;;;;;;;4969661;28;25068;-67
2024/02/06 11:13:49;;;;;;;23.23;6.90;;;;;;;;;;4963667;28;25211;-65
2024/02/06 11:16:19;;;;;;;18.65;5.25;;;;;;;;;;4946676;28;25088;-64
2024/02/06 11:19:04;;;;;;;14.77;4.47;;;;;;;;;;4965179;28;25075;-63
2024/02/06 11:21:32;;;;;;;18.98;5.20;;;;;;;;;;4967374;28;25117;-63
2024/02/06 11:23:59;;;;;;;18.10;4.97;;;;;;;;;;4971012;28;25142;-66
2024/02/06 11:26:25;;;;;;;14.75;5.60;;;;;;;;;;4967670;28;25139;-64
2024/02/06 11:28:52;;;;;;;19.83;5.22;;;;;;;;;;4969952;28;25169;-65
2024/02/06 11:31:19;;;;;;;17.25;5.68;;;;;;;;;;4943675;28;25138;-66
2024/02/06 11:33:45;;;;;;;21.63;6.53;;;;;;;;;;4967672;28;25161;-65
2024/02/06 11:36:19;;;;;;;23.23;6.13;;;;;;;;;;4969801;28;25055;-66
2024/02/06 11:38:45;;;;;;;22.92;5.95;;;;;;;;;;4971121;28;25127;-63
2024/02/06 11:41:16;;;;;;;23.60;5.93;;;;;;;;;;4972021;28;25117;-65
2024/02/06 11:43:42;;;;;;;23.65;5.45;;;;;;;;;;4968679;28;25060;-64
2024/02/06 11:46:08;;;;;;;20.80;5.20;;;;;;;;;;4971651;28;25063;-62
2024/02/06 11:48:34;;;;;;;19.67;7.20;;;;;;;;;;4971329;28;25065;-64
2024/02/06 11:51:00;;;;;;;18.08;5.82;;;;;;;;;;4976540;28;25101;-64
2024/02/06 11:53:27;;;;;;;24.13;6.60;;;;;;;;;;4978960;28;25067;-66
2024/02/06 11:55:59;;;;;;;22.45;6.80;;;;;;;;;;4971809;28;25064;-66
2024/02/06 11:58:26;;;;;;;32.70;7.03;;;;;;;;;;4972547;28;25065;-64
2024/02/06 12:00:52;;;;;;;21.23;6.97;;;;;;;;;;4968218;28;25072;-63
2024/02/06 12:03:18;;;;;;;27.98;6.18;;;;;;;;;;4968690;28;25074;-64
2024/02/06 12:05:44;;;;;;;27.60;7.35;;;;;;;;;;4969374;28;25069;-64
2024/02/06 12:08:12;;;;;;;26.83;7.68;;;;;;;;;;4970578;28;25081;-64
2024/02/06 12:10:39;;;;;;;27.27;7.20;;;;;;;;;;4970195;28;25059;-65
2024/02/06 12:13:06;;;;;;;28.25;7.43;;;;;;;;;;4971137;28;26179;-68
2024/02/06 12:15:35;;;;;;;27.65;6.13;;;;;;;;;;4975378;28;25072;-63
2024/02/06 12:18:03;;;;;;;24.52;6.93;;;;;;;;;;4970085;28;25150;-67
2024/02/06 12:20:29;;;;;;;25.67;6.15;;;;;;;;;;4972044;28;25135;-65
2024/02/06 12:22:57;;;;;;;33.33;7.10;;;;;;;;;;4973716;28;25066;-66
2024/02/06 12:25:23;;;;;;;27.30;7.80;;;;;;;;;;4967320;28;25132;-66
2024/02/06 12:28:01;;;;;;;25.42;6.88;;;;;;;;;;4967361;28;25055;-64
2024/02/06 12:30:28;;;;;;;26.75;6.78;;;;;;;;;;4969948;28;25151;-65
2024/02/06 12:32:55;;;;;;;32.78;8.07;;;;;;;;;;4967705;28;25139;-62
2024/02/06 12:35:21;;;;;;;32.50;7.28;;;;;;;;;;4967010;28;25062;-64
2024/02/06 12:37:47;;;;;;;25.05;6.90;;;;;;;;;;4967176;28;25082;-62
2024/02/06 12:40:14;;;;;;;27.50;8.10;;;;;;;;;;4964007;28;25063;-65
2024/02/06 12:42:44;;;;;;;37.28;8.20;;;;;;;;;;4965841;28;25067;-67
2024/02/06 12:45:10;;;;;;;22.65;6.75;;;;;;;;;;4967308;28;25074;-65
2024/02/06 12:47:36;;;;;;;23.55;6.97;;;;;;;;;;4967762;28;25129;-66
2024/02/06 12:50:03;;;;;;;24.92;7.43;;;;;;;;;;4970941;28;25064;-65
2024/02/06 12:52:29;;;;;;;29.58;7.05;;;;;;;;;;4971924;28;25057;-65
2024/02/06 12:54:57;;;;;;;32.38;7.78;;;;;;;;;;4968713;28;25058;-66
2024/02/06 12:57:23;;;;;;;34.08;7.55;;;;;;;;;;4966961;28;25063;-67
2024/02/06 12:59:49;;;;;;;33.45;8.07;;;;;;;;;;4970340;28;25057;-64
2024/02/06 13:02:15;;;;;;;25.27;6.68;;;;;;;;;;4977841;28;25070;-65
2024/02/06 13:04:41;;;;;;;33.58;8.88;;;;;;;;;;4982311;28;25088;-64
2024/02/06 13:07:17;;;;;;;36.85;6.75;;;;;;;;;;4978401;28;25104;-62
2024/02/06 13:09:43;;;;;;;37.22;8.40;;;;;;;;;;4973290;28;25079;-65
2024/02/06 13:12:10;;;;;;;39.78;8.43;;;;;;;;;;4969425;28;25074;-62
2024/02/06 13:14:36;;;;;;;30.92;6.90;;;;;;;;;;4967577;28;25059;-64
2024/02/06 13:17:02;;;;;;;31.45;8.10;;;;;;;;;;4968652;28;25094;-63
2024/02/06 13:19:29;;;;;;;33.92;6.88;;;;;;;;;;4968494;28;25065;-64
2024/02/06 13:21:59;;;;;;;34.97;8.02;;;;;;;;;;4966531;28;25109;-66
2024/02/06 13:24:25;;;;;;;33.72;7.40;;;;;;;;;;4967240;28;25068;-67
2024/02/06 13:26:52;;;;;;;39.10;8.27;;;;;;;;;;4968696;28;25149;-65
2024/02/06 13:29:18;;;;;;;48.15;8.63;;;;;;;;;;4969294;28;25099;-65
2024/02/06 13:31:44;;;;;;;32.67;8.35;;;;;;;;;;4963167;28;25184;-65
2024/02/06 13:34:10;;;;;;;26.10;8.00;;;;;;;;;;4969111;28;25091;-63
2024/02/06 13:36:36;;;;;;;24.05;6.75;;;;;;;;;;4969818;28;25068;-63
2024/02/06 13:39:06;;;;;;;25.90;7.03;;;;;;;;;;4976818;28;25042;-65
2024/02/06 13:41:32;;;;;;;33.47;7.07;;;;;;;;;;4977678;28;25130;-64
2024/02/06 13:43:58;;;;;;;28.05;7.35;;;;;;;;;;4972080;28;25089;-65
2024/02/06 13:46:24;;;;;;;36.08;6.97;;;;;;;;;;4969218;28;25059;-63
2024/02/06 13:48:50;;;;;;;28.88;7.00;;;;;;;;;;4972052;28;25060;-63
2024/02/06 13:51:16;;;;;;;24.63;6.05;;;;;;;;;;4969647;28;25046;-68
2024/02/06 13:53:42;;;;;;;33.63;5.68;;;;;;;;;;4973625;28;25059;-65
2024/02/06 13:56:09;;;;;;;23.77;6.38;;;;;;;;;;4992324;28;25055;-62
2024/02/06 13:58:35;;;;;;;22.95;5.22;;;;;;;;;;4970064;28;25052;-64
2024/02/06 14:01:01;;;;;;;22.33;4.90;;;;;;;;;;4970387;28;25076;-62
2024/02/06 14:03:27;;;;;;;20.73;4.90;;;;;;;;;;4972837;28;25054;-67
2024/02/06 14:05:54;;;;;;;22.70;5.53;;;;;;;;;;4971866;28;25068;-63
2024/02/06 14:08:22;;;;;;;24.05;5.10;;;;;;;;;;4969421;28;25059;-64
2024/02/06 14:10:48;;;;;;;27.05;7.40;;;;;;;;;;4968978;28;25071;-64
2024/02/06 14:13:14;;;;;;;22.92;5.70;;;;;;;;;;4969787;28;25087;-64
2024/02/06 14:15:40;;;;;;;37.58;6.32;;;;;;;;;;4971350;28;25164;-64
2024/02/06 14:18:06;;;;;;;23.50;5.43;;;;;;;;;;4968860;28;25060;-64
2024/02/06 14:20:32;;;;;;;41.80;7.55;;;;;;;;;;4969748;28;25070;-63
2024/02/06 14:22:58;;;;;;;20.70;5.57;;;;;;;;;;4974235;28;25064;-65